Grand Teton National Park, WY

3:40 AM MDT on August 21, 2014 (GMT -0600)
Dubois Muni, Dubois, WY | Change Station
CLOSE
Current Station
Airport
Location: Dubois Muni, Dubois, WY,
Elevation: 7297 ft
Nearby Weather Stations

Elev 7297 ft 43.55 °N, 109.69 °W | Updated 25 minutes ago

Clear
Clear
50 °F
Feels Like 50 °F
N
15
Wind Variable Wind from WNW

Today
High -- | Low -- °F
--% Chance of Precip.
Yesterday
High -- | Low -- °F
Precip. -- in
6:32 AM 8:15 PM
Waning Crescent, 15% visible
Pressure 30.12 in
Visibility 10.0 miles
Clouds Clear
Dew Point 41 °F
Humidity 71%
Rainfall 0.00 in
Snow Depth Not available.
UV 0 out of 12
Pollen 9.00 out of 12
Air Quality Not available.
Flu Activity Not available.
METAR KDUB 210915Z AUTO 29013KT 10SM CLR 10/05 A3012 RMK AO2

More Conditions Fewer Conditions

Pressure 30.12 in
Visibility 10.0 miles
Clouds Clear
Dew Point 41 °F
Humidity 71%
Rainfall 0.00 in
Snow Depth Not available.
UV 0 out of 12
Pollen 9.00 out of 12
Air Quality Not available.
Flu Activity Not available.
METAR KDUB 210915Z AUTO 29013KT 10SM CLR 10/05 A3012 RMK AO2

More Conditions Fewer Conditions

10-Day Weather Forecast

Almanac

Astronomy

Aug. 21, 2014 Rise Set
Actual Time 6:32 AM MDT 8:15 PM MDT
Civil Twilight 6:01 AM MDT 8:46 PM MDT
Nautical Twilight 5:24 AM MDT 9:23 PM MDT
Astronomical Twilight 4:43 AM MDT 10:03 PM MDT
Moon 3:02 AM MDT 5:49 PM MDT
Length of Visible Light 14h 44m
Length of Day
13h 43m
Tomorrow will be 2m 47s shorter.
Waning Crescent, 15% of the Moon is Illuminated
Today
Waning Crescent
Aug 25
New
Sep 2
First Quarter
Sep 8
Full
Sep 15
Last Quarter

Today's Extremes

State Highs State Lows

Community

WunderPhotos

Upload Photos

1,745,871 photos uploaded!

Nearby

Snow Depth

Station Depth Elevation
Base Camp 0 in 7030 ft
Sylvan Lake 0 in 8420 ft
Gros Ventre Summit 0 in 8750 ft
Granite Creek 0 in 6770 ft
Phillips Bench 0 in 8200 ft

Earthquake Activity

City Distance Mag. Time & Date
No recent earthquake activity has been reported nearby.
Minimum magnitude displayed is 2.5.

Coastal Water Temperatures

Place Temperature
No Stations Reporting

Nearby Weather Stations